sensor_id;sensor_type;location;lat;lon;timestamp;pressure;altitude;pressure_sealevel;temperature;humidity
74573;BME280;73017;50.810;4.428;2023-10-08T00:01:35;101843.09;;;22.16;61.94
74573;BME280;73017;50.810;4.428;2023-10-08T00:04:06;101865.97;;;22.29;61.54
74573;BME280;73017;50.810;4.428;2023-10-08T00:06:33;101844.22;;;22.15;61.60
74573;BME280;73017;50.810;4.428;2023-10-08T00:08:58;101837.69;;;22.12;61.76
74573;BME280;73017;50.810;4.428;2023-10-08T00:11:36;101872.75;;;22.27;61.25
74573;BME280;73017;50.810;4.428;2023-10-08T00:14:03;101867.06;;;22.28;61.96
74573;BME280;73017;50.810;4.428;2023-10-08T00:16:30;101863.31;;;22.29;61.76
74573;BME280;73017;50.810;4.428;2023-10-08T00:18:59;101872.84;;;22.30;61.72
74573;BME280;73017;50.810;4.428;2023-10-08T00:21:32;101867.84;;;22.29;61.62
74573;BME280;73017;50.810;4.428;2023-10-08T00:24:00;101835.03;;;22.12;61.80
74573;BME280;73017;50.810;4.428;2023-10-08T00:26:29;101837.31;;;22.14;61.62
74573;BME280;73017;50.810;4.428;2023-10-08T00:28:59;101859.06;;;22.28;61.65
74573;BME280;73017;50.810;4.428;2023-10-08T00:31:26;101854.53;;;22.29;61.75
74573;BME280;73017;50.810;4.428;2023-10-08T00:34:04;101854.88;;;22.27;61.69
74573;BME280;73017;50.810;4.428;2023-10-08T00:36:33;101850.75;;;22.30;62.01
74573;BME280;73017;50.810;4.428;2023-10-08T00:38:59;101819.69;;;22.09;62.01
74573;BME280;73017;50.810;4.428;2023-10-08T00:41:26;101858.63;;;22.26;61.23
74573;BME280;73017;50.810;4.428;2023-10-08T00:43:57;101857.28;;;22.20;61.55
74573;BME280;73017;50.810;4.428;2023-10-08T00:46:25;101855.97;;;22.14;61.26
74573;BME280;73017;50.810;4.428;2023-10-08T00:49:02;101854.00;;;22.11;61.44
74573;BME280;73017;50.810;4.428;2023-10-08T00:51:46;101862.53;;;22.16;61.78
74573;BME280;73017;50.810;4.428;2023-10-08T00:54:24;101865.97;;;22.17;62.01
74573;BME280;73017;50.810;4.428;2023-10-08T00:56:54;101851.66;;;22.09;61.49
74573;BME280;73017;50.810;4.428;2023-10-08T00:59:33;101857.75;;;22.10;61.49
74573;BME280;73017;50.810;4.428;2023-10-08T01:02:09;101884.06;;;22.24;61.59
74573;BME280;73017;50.810;4.428;2023-10-08T01:04:40;101862.63;;;22.08;61.58
74573;BME280;73017;50.810;4.428;2023-10-08T01:07:11;101876.72;;;22.20;61.23
74573;BME280;73017;50.810;4.428;2023-10-08T01:09:43;101856.53;;;22.07;61.71
74573;BME280;73017;50.810;4.428;2023-10-08T01:12:23;101864.53;;;22.07;61.73
74573;BME280;73017;50.810;4.428;2023-10-08T01:15:09;101862.63;;;22.08;61.52
74573;BME280;73017;50.810;4.428;2023-10-08T01:17:49;101894.72;;;22.24;61.97
74573;BME280;73017;50.810;4.428;2023-10-08T01:20:24;101877.84;;;22.07;62.06
74573;BME280;73017;50.810;4.428;2023-10-08T01:25:35;101884.28;;;22.18;61.71
74573;BME280;73017;50.810;4.428;2023-10-08T01:28:01;101891.56;;;22.21;61.52
74573;BME280;73017;50.810;4.428;2023-10-08T01:30:34;101870.97;;;22.06;61.68
74573;BME280;73017;50.810;4.428;2023-10-08T01:33:01;101845.56;;;21.96;61.77
74573;BME280;73017;50.810;4.428;2023-10-08T01:35:28;101885.38;;;22.17;61.87
74573;BME280;73017;50.810;4.428;2023-10-08T01:37:57;101853.75;;;22.04;62.19
74573;BME280;73017;50.810;4.428;2023-10-08T01:40:25;101873.06;;;22.13;62.38
74573;BME280;73017;50.810;4.428;2023-10-08T01:42:51;101878.06;;;22.14;62.28
74573;BME280;73017;50.810;4.428;2023-10-08T01:45:17;101853.53;;;22.09;62.22
74573;BME280;73017;50.810;4.428;2023-10-08T01:47:46;101866.63;;;22.14;61.99
74573;BME280;73017;50.810;4.428;2023-10-08T01:50:17;101842.59;;;21.98;61.74
74573;BME280;73017;50.810;4.428;2023-10-08T01:52:55;101841.78;;;21.97;61.97
74573;BME280;73017;50.810;4.428;2023-10-08T01:55:21;101861.72;;;22.16;62.11
74573;BME280;73017;50.810;4.428;2023-10-08T01:57:50;101859.31;;;22.11;61.64
74573;BME280;73017;50.810;4.428;2023-10-08T02:00:18;101870.50;;;22.16;61.84
74573;BME280;73017;50.810;4.428;2023-10-08T02:02:49;101838.03;;;21.98;62.32
74573;BME280;73017;50.810;4.428;2023-10-08T02:05:16;101854.44;;;22.13;62.21
74573;BME280;73017;50.810;4.428;2023-10-08T02:07:47;101849.44;;;22.11;61.89
74573;BME280;73017;50.810;4.428;2023-10-08T02:10:13;101839.34;;;22.05;61.63
74573;BME280;73017;50.810;4.428;2023-10-08T02:12:41;101815.16;;;21.97;61.63
74573;BME280;73017;50.810;4.428;2023-10-08T02:15:08;101827.50;;;22.02;61.93
74573;BME280;73017;50.810;4.428;2023-10-08T02:17:34;101822.72;;;21.95;61.78
74573;BME280;73017;50.810;4.428;2023-10-08T02:20:01;101823.84;;;21.94;61.56
74573;BME280;73017;50.810;4.428;2023-10-08T02:22:30;101818.50;;;21.94;62.00
74573;BME280;73017;50.810;4.428;2023-10-08T02:24:56;101859.44;;;22.14;61.50
74573;BME280;73017;50.810;4.428;2023-10-08T02:27:28;101836.13;;;21.99;61.84
74573;BME280;73017;50.810;4.428;2023-10-08T02:29:54;101829.59;;;21.96;61.94
74573;BME280;73017;50.810;4.428;2023-10-08T02:32:20;101824.72;;;21.98;62.05
74573;BME280;73017;50.810;4.428;2023-10-08T02:34:50;101831.50;;;21.96;61.47
74573;BME280;73017;50.810;4.428;2023-10-08T02:37:16;101807.09;;;21.94;61.67
74573;BME280;73017;50.810;4.428;2023-10-08T02:39:42;101840.56;;;22.07;61.59
74573;BME280;73017;50.810;4.428;2023-10-08T02:42:08;101824.59;;;22.07;62.02
74573;BME280;73017;50.810;4.428;2023-10-08T02:44:36;101826.03;;;22.05;61.87
74573;BME280;73017;50.810;4.428;2023-10-08T02:47:09;101807.97;;;21.86;62.68
74573;BME280;73017;50.810;4.428;2023-10-08T02:49:37;101845.88;;;22.07;62.28
74573;BME280;73017;50.810;4.428;2023-10-08T02:52:06;101826.38;;;21.91;62.55
74573;BME280;73017;50.810;4.428;2023-10-08T02:54:34;101848.88;;;22.06;62.67
74573;BME280;73017;50.810;4.428;2023-10-08T02:57:02;101837.25;;;21.98;62.82
74573;BME280;73017;50.810;4.428;2023-10-08T02:59:30;101859.09;;;22.04;63.02
74573;BME280;73017;50.810;4.428;2023-10-08T03:02:06;101867.19;;;22.07;62.85
74573;BME280;73017;50.810;4.428;2023-10-08T03:04:43;101836.25;;;21.90;63.09
74573;BME280;73017;50.810;4.428;2023-10-08T03:07:13;101841.16;;;21.88;63.48
74573;BME280;73017;50.810;4.428;2023-10-08T03:09:47;101866.44;;;21.94;62.88
74573;BME280;73017;50.810;4.428;2023-10-08T03:12:15;101867.31;;;21.98;63.40
74573;BME280;73017;50.810;4.428;2023-10-08T03:14:42;101855.56;;;21.87;63.56
74573;BME280;73017;50.810;4.428;2023-10-08T03:17:15;101883.84;;;22.04;63.11
74573;BME280;73017;50.810;4.428;2023-10-08T03:19:46;101863.22;;;21.89;63.11
74573;BME280;73017;50.810;4.428;2023-10-08T03:22:12;101864.41;;;21.91;63.18
74573;BME280;73017;50.810;4.428;2023-10-08T03:24:37;101867.09;;;21.91;63.24
74573;BME280;73017;50.810;4.428;2023-10-08T03:27:05;101860.53;;;21.89;63.30
74573;BME280;73017;50.810;4.428;2023-10-08T03:29:48;101872.53;;;21.95;63.59
74573;BME280;73017;50.810;4.428;2023-10-08T03:32:14;101869.22;;;21.98;63.80
74573;BME280;73017;50.810;4.428;2023-10-08T03:34:45;101889.38;;;21.99;63.45
74573;BME280;73017;50.810;4.428;2023-10-08T03:37:13;101874.53;;;21.98;63.80
74573;BME280;73017;50.810;4.428;2023-10-08T03:39:48;101869.97;;;21.98;63.56
74573;BME280;73017;50.810;4.428;2023-10-08T03:42:23;101885.28;;;22.01;63.81
74573;BME280;73017;50.810;4.428;2023-10-08T03:44:52;101882.97;;;22.00;63.86
74573;BME280;73017;50.810;4.428;2023-10-08T03:47:20;101867.09;;;21.91;63.51
74573;BME280;73017;50.810;4.428;2023-10-08T03:49:48;101861.44;;;21.80;63.23
74573;BME280;73017;50.810;4.428;2023-10-08T03:52:16;101878.63;;;21.95;63.69
74573;BME280;73017;50.810;4.428;2023-10-08T03:54:44;101855.78;;;21.82;63.71
74573;BME280;73017;50.810;4.428;2023-10-08T03:57:30;101857.00;;;21.85;63.80
74573;BME280;73017;50.810;4.428;2023-10-08T04:00:11;101850.69;;;21.77;63.51
74573;BME280;73017;50.810;4.428;2023-10-08T04:02:42;101871.53;;;21.87;63.87
74573;BME280;73017;50.810;4.428;2023-10-08T04:05:11;101882.41;;;21.94;63.27
74573;BME280;73017;50.810;4.428;2023-10-08T04:07:48;101849.91;;;21.76;63.45
74573;BME280;73017;50.810;4.428;2023-10-08T04:10:32;101868.66;;;21.80;62.99
74573;BME280;73017;50.810;4.428;2023-10-08T04:13:04;101893.81;;;21.95;63.14
74573;BME280;73017;50.810;4.428;2023-10-08T04:15:34;101868.53;;;21.76;63.64
74573;BME280;73017;50.810;4.428;2023-10-08T04:18:00;101892.28;;;21.94;63.31
74573;BME280;73017;50.810;4.428;2023-10-08T04:20:28;101893.06;;;21.94;63.15
74573;BME280;73017;50.810;4.428;2023-10-08T04:22:59;101892.59;;;21.92;63.21
74573;BME280;73017;50.810;4.428;2023-10-08T04:25:26;101899.47;;;21.93;63.19
74573;BME280;73017;50.810;4.428;2023-10-08T04:28:00;101882.72;;;21.80;63.29
74573;BME280;73017;50.810;4.428;2023-10-08T04:30:27;101866.53;;;21.73;63.00
74573;BME280;73017;50.810;4.428;2023-10-08T04:33:03;101863.88;;;21.73;63.33
74573;BME280;73017;50.810;4.428;2023-10-08T04:35:35;101882.41;;;21.82;63.37
74573;BME280;73017;50.810;4.428;2023-10-08T04:38:05;101876.19;;;21.78;62.99
74573;BME280;73017;50.810;4.428;2023-10-08T04:40:35;101884.19;;;21.78;63.22
74573;BME280;73017;50.810;4.428;2023-10-08T04:43:07;101886.41;;;21.76;63.01
74573;BME280;73017;50.810;4.428;2023-10-08T04:45:36;101881.06;;;21.76;62.82
74573;BME280;73017;50.810;4.428;2023-10-08T04:48:04;101876.41;;;21.73;63.06
74573;BME280;73017;50.810;4.428;2023-10-08T04:50:35;101901.91;;;21.86;62.82
74573;BME280;73017;50.810;4.428;2023-10-08T04:53:02;101882.50;;;21.73;63.22
74573;BME280;73017;50.810;4.428;2023-10-08T04:55:34;101905.78;;;21.89;63.00
74573;BME280;73017;50.810;4.428;2023-10-08T04:58:00;101913.47;;;21.90;63.08
74573;BME280;73017;50.810;4.428;2023-10-08T05:00:29;101892.16;;;21.78;62.92
74573;BME280;73017;50.810;4.428;2023-10-08T05:03:16;101921.31;;;21.87;62.76
74573;BME280;73017;50.810;4.428;2023-10-08T05:05:42;101922.53;;;21.89;62.88
74573;BME280;73017;50.810;4.428;2023-10-08T05:08:22;101897.69;;;21.73;62.74
74573;BME280;73017;50.810;4.428;2023-10-08T05:10:57;101923.97;;;21.87;62.33
74573;BME280;73017;50.810;4.428;2023-10-08T05:13:40;101925.19;;;21.89;62.15
74573;BME280;73017;50.810;4.428;2023-10-08T05:16:21;101886.91;;;21.69;62.06
74573;BME280;73017;50.810;4.428;2023-10-08T05:19:10;101920.19;;;21.88;62.35
74573;BME280;73017;50.810;4.428;2023-10-08T05:22:13;101919.31;;;21.84;62.49
74573;BME280;73017;50.810;4.428;2023-10-08T05:24:54;101920.44;;;21.83;62.33
74573;BME280;73017;50.810;4.428;2023-10-08T05:27:45;101896.47;;;21.70;62.61
74573;BME280;73017;50.810;4.428;2023-10-08T05:30:14;101925.75;;;21.83;62.58
74573;BME280;73017;50.810;4.428;2023-10-08T05:32:54;101882.94;;;21.63;62.10
74573;BME280;73017;50.810;4.428;2023-10-08T05:35:42;101907.00;;;21.79;62.50
74573;BME280;73017;50.810;4.428;2023-10-08T05:38:09;101908.22;;;21.81;62.06
74573;BME280;73017;50.810;4.428;2023-10-08T05:40:54;101904.03;;;21.80;62.31
74573;BME280;73017;50.810;4.428;2023-10-08T05:43:37;101911.69;;;21.82;62.28
74573;BME280;73017;50.810;4.428;2023-10-08T05:46:11;101914.00;;;21.84;62.37
74573;BME280;73017;50.810;4.428;2023-10-08T05:48:55;101914.78;;;21.84;61.94
74573;BME280;73017;50.810;4.428;2023-10-08T05:54:21;101918.09;;;21.81;62.29
74573;BME280;73017;50.810;4.428;2023-10-08T05:57:07;101910.78;;;21.78;61.85
74573;BME280;73017;50.810;4.428;2023-10-08T05:59:44;101879.81;;;21.61;61.73
74573;BME280;73017;50.810;4.428;2023-10-08T06:02:40;101891.16;;;21.70;62.24
74573;BME280;73017;50.810;4.428;2023-10-08T06:05:10;101902.88;;;21.69;62.10
74573;BME280;73017;50.810;4.428;2023-10-08T06:07:49;101892.91;;;21.66;61.34
74573;BME280;73017;50.810;4.428;2023-10-08T06:10:29;101863.59;;;21.41;60.98
74573;BME280;73017;50.810;4.428;2023-10-08T06:13:11;101903.91;;;21.77;61.93
74573;BME280;73017;50.810;4.428;2023-10-08T06:15:56;101895.34;;;21.71;61.92
74573;BME280;73017;50.810;4.428;2023-10-08T06:18:28;101927.09;;;21.89;62.13
74573;BME280;73017;50.810;4.428;2023-10-08T06:21:03;101928.66;;;21.90;61.85
74573;BME280;73017;50.810;4.428;2023-10-08T06:23:39;101927.09;;;21.89;62.12
74573;BME280;73017;50.810;4.428;2023-10-08T06:26:05;101923.22;;;21.86;61.78
74573;BME280;73017;50.810;4.428;2023-10-08T06:28:32;101930.53;;;21.89;61.83
74573;BME280;73017;50.810;4.428;2023-10-08T06:31:03;101902.56;;;21.71;61.83
74573;BME280;73017;50.810;4.428;2023-10-08T06:33:32;101902.56;;;21.71;61.46
74573;BME280;73017;50.810;4.428;2023-10-08T06:36:02;101938.50;;;21.89;61.92
74573;BME280;73017;50.810;4.428;2023-10-08T06:38:33;101931.06;;;21.83;61.48
74573;BME280;73017;50.810;4.428;2023-10-08T06:41:03;101915.53;;;21.72;61.75
74573;BME280;73017;50.810;4.428;2023-10-08T06:43:49;101922.84;;;21.75;61.52
74573;BME280;73017;50.810;4.428;2023-10-08T06:46:16;101924.28;;;21.73;61.75
74573;BME280;73017;50.810;4.428;2023-10-08T06:48:45;101950.59;;;21.87;61.69
74573;BME280;73017;50.810;4.428;2023-10-08T06:51:12;101935.25;;;21.71;62.03
74573;BME280;73017;50.810;4.428;2023-10-08T06:53:39;101926.06;;;21.69;62.03
74573;BME280;73017;50.810;4.428;2023-10-08T06:56:05;101953.59;;;21.85;62.26
74573;BME280;73017;50.810;4.428;2023-10-08T06:58:33;101925.75;;;21.70;62.22
74573;BME280;73017;50.810;4.428;2023-10-08T07:01:00;101958.13;;;21.85;62.42
74573;BME280;73017;50.810;4.428;2023-10-08T07:03:31;101932.59;;;21.71;61.89
74573;BME280;73017;50.810;4.428;2023-10-08T07:05:58;101939.38;;;21.81;62.39
74573;BME280;73017;50.810;4.428;2023-10-08T07:08:27;101946.72;;;21.84;61.88
74573;BME280;73017;50.810;4.428;2023-10-08T07:10:58;101953.38;;;21.90;62.40
74573;BME280;73017;50.810;4.428;2023-10-08T07:13:27;101930.84;;;21.75;61.93
74573;BME280;73017;50.810;4.428;2023-10-08T07:15:55;101952.13;;;21.88;62.35
74573;BME280;73017;50.810;4.428;2023-10-08T07:18:21;101924.19;;;21.69;62.16
74573;BME280;73017;50.810;4.428;2023-10-08T07:20:55;101956.38;;;21.89;62.29
74573;BME280;73017;50.810;4.428;2023-10-08T07:23:27;101952.13;;;21.88;61.73
74573;BME280;73017;50.810;4.428;2023-10-08T07:25:55;101957.13;;;21.89;61.83
74573;BME280;73017;50.810;4.428;2023-10-08T07:28:41;101956.34;;;21.76;61.89
74573;BME280;73017;50.810;4.428;2023-10-08T07:31:14;101965.91;;;21.90;62.40
74573;BME280;73017;50.810;4.428;2023-10-08T07:33:43;101963.13;;;21.86;61.81
74573;BME280;73017;50.810;4.428;2023-10-08T07:36:10;101958.13;;;21.85;61.85
74573;BME280;73017;50.810;4.428;2023-10-08T07:38:43;101945.59;;;21.73;61.83
74573;BME280;73017;50.810;4.428;2023-10-08T07:41:13;101966.69;;;21.90;61.70
74573;BME280;73017;50.810;4.428;2023-10-08T07:43:43;101971.91;;;21.87;62.21
74573;BME280;73017;50.810;4.428;2023-10-08T07:46:11;101904.41;;;21.46;61.33
74573;BME280;73017;50.810;4.428;2023-10-08T07:48:39;101956.13;;;21.81;61.56
74573;BME280;73017;50.810;4.428;2023-10-08T07:51:08;101946.81;;;21.75;60.92
74573;BME280;73017;50.810;4.428;2023-10-08T07:53:33;101953.47;;;21.81;60.77
74573;BME280;73017;50.810;4.428;2023-10-08T07:56:07;101955.34;;;21.81;60.69
74573;BME280;73017;50.810;4.428;2023-10-08T07:58:34;101973.22;;;21.93;61.01
74573;BME280;73017;50.810;4.428;2023-10-08T08:01:11;101960.22;;;21.79;60.94
74573;BME280;73017;50.810;4.428;2023-10-08T08:03:40;101976.22;;;21.91;60.67
74573;BME280;73017;50.810;4.428;2023-10-08T08:06:08;101964.34;;;21.76;60.70
74573;BME280;73017;50.810;4.428;2023-10-08T08:08:38;101980.44;;;21.92;60.86
74573;BME280;73017;50.810;4.428;2023-10-08T08:11:07;101978.56;;;21.93;60.60
74573;BME280;73017;50.810;4.428;2023-10-08T08:13:40;101956.47;;;21.80;60.08
74573;BME280;73017;50.810;4.428;2023-10-08T08:16:11;101948.94;;;21.82;60.64
74573;BME280;73017;50.810;4.428;2023-10-08T08:18:52;101979.88;;;21.99;60.60
74573;BME280;73017;50.810;4.428;2023-10-08T08:21:23;101949.72;;;21.83;60.11
74573;BME280;73017;50.810;4.428;2023-10-08T08:23:49;101970.00;;;21.99;60.33
74573;BME280;73017;50.810;4.428;2023-10-08T08:26:20;101956.56;;;21.84;60.28
74573;BME280;73017;50.810;4.428;2023-10-08T08:28:57;101978.81;;;22.00;60.22
74573;BME280;73017;50.810;4.428;2023-10-08T08:31:24;101960.91;;;21.88;60.51
74573;BME280;73017;50.810;4.428;2023-10-08T08:33:51;101962.47;;;21.89;60.19
74573;BME280;73017;50.810;4.428;2023-10-08T08:36:23;101991.09;;;22.05;60.46
74573;BME280;73017;50.810;4.428;2023-10-08T08:38:50;101953.25;;;21.87;60.36
74573;BME280;73017;50.810;4.428;2023-10-08T08:41:16;101971.69;;;22.04;60.18
74573;BME280;73017;50.810;4.428;2023-10-08T08:43:53;101956.16;;;21.94;60.19
74573;BME280;73017;50.810;4.428;2023-10-08T08:46:37;101970.69;;;22.09;60.11
74573;BME280;73017;50.810;4.428;2023-10-08T08:49:05;101966.47;;;22.08;60.07
74573;BME280;73017;50.810;4.428;2023-10-08T08:51:33;101982.56;;;22.11;60.20
74573;BME280;73017;50.810;4.428;2023-10-08T08:54:01;101948.19;;;21.94;60.14
74573;BME280;73017;50.810;4.428;2023-10-08T08:56:34;101979.69;;;22.16;59.80
74573;BME280;73017;50.810;4.428;2023-10-08T08:59:01;101958.38;;;22.04;59.93
74573;BME280;73017;50.810;4.428;2023-10-08T09:01:26;101986.88;;;22.16;60.11
74573;BME280;73017;50.810;4.428;2023-10-08T09:03:58;101951.72;;;21.98;60.25
74573;BME280;73017;50.810;4.428;2023-10-08T09:06:26;101989.22;;;22.17;60.04
74573;BME280;73017;50.810;4.428;2023-10-08T09:08:53;101964.16;;;22.06;59.72
74573;BME280;73017;50.810;4.428;2023-10-08T09:11:21;101980.59;;;22.20;59.94
74573;BME280;73017;50.810;4.428;2023-10-08T09:13:47;101935.97;;;21.93;60.03
74573;BME280;73017;50.810;4.428;2023-10-08T09:16:14;101978.38;;;22.23;59.85
74573;BME280;73017;50.810;4.428;2023-10-08T09:18:44;101962.03;;;22.12;59.77
74573;BME280;73017;50.810;4.428;2023-10-08T09:21:18;101977.06;;;22.29;59.67
74573;BME280;73017;50.810;4.428;2023-10-08T09:23:52;101980.50;;;22.29;59.90
74573;BME280;73017;50.810;4.428;2023-10-08T09:26:26;101941.97;;;22.02;59.97
74573;BME280;73017;50.810;4.428;2023-10-08T09:28:54;101955.72;;;22.16;59.92
74573;BME280;73017;50.810;4.428;2023-10-08T09:31:23;101982.03;;;22.30;59.59
74573;BME280;73017;50.810;4.428;2023-10-08T09:33:55;101986.91;;;22.28;59.69
74573;BME280;73017;50.810;4.428;2023-10-08T09:36:22;101964.06;;;22.27;60.12
74573;BME280;73017;50.810;4.428;2023-10-08T09:39:03;101969.72;;;22.26;59.85
74573;BME280;73017;50.810;4.428;2023-10-08T09:41:32;101984.38;;;22.32;59.96
74573;BME280;73017;50.810;4.428;2023-10-08T09:44:00;101978.28;;;22.31;59.98
74573;BME280;73017;50.810;4.428;2023-10-08T09:46:31;101978.94;;;22.28;59.94
74573;BME280;73017;50.810;4.428;2023-10-08T09:49:02;101967.72;;;22.23;60.02
74573;BME280;73017;50.810;4.428;2023-10-08T09:51:33;101994.81;;;22.37;59.96
74573;BME280;73017;50.810;4.428;2023-10-08T09:54:11;101986.38;;;22.35;59.94
74573;BME280;73017;50.810;4.428;2023-10-08T09:56:40;101983.03;;;22.38;59.78
74573;BME280;73017;50.810;4.428;2023-10-08T09:59:08;101994.13;;;22.40;59.72
74573;BME280;73017;50.810;4.428;2023-10-08T10:01:37;101973.28;;;22.30;59.60
74573;BME280;73017;50.810;4.428;2023-10-08T10:04:10;101975.84;;;22.38;59.73
74573;BME280;73017;50.810;4.428;2023-10-08T10:06:37;101987.25;;;22.51;59.58
74573;BME280;73017;50.810;4.428;2023-10-08T10:09:04;101980.34;;;22.50;59.73
74573;BME280;73017;50.810;4.428;2023-10-08T10:11:47;101979.38;;;22.55;60.07
74573;BME280;73017;50.810;4.428;2023-10-08T10:14:13;101990.13;;;22.58;59.65
74573;BME280;73017;50.810;4.428;2023-10-08T10:16:39;101960.38;;;22.44;59.49
74573;BME280;73017;50.810;4.428;2023-10-08T10:19:16;101964.81;;;22.52;59.34
74573;BME280;73017;50.810;4.428;2023-10-08T10:21:43;101947.50;;;22.46;59.50
74573;BME280;73017;50.810;4.428;2023-10-08T10:24:23;101975.44;;;22.65;59.51
74573;BME280;73017;50.810;4.428;2023-10-08T10:27:09;101977.47;;;22.68;59.48
74573;BME280;73017;50.810;4.428;2023-10-08T10:29:36;101952.63;;;22.51;59.52
74573;BME280;73017;50.810;4.428;2023-10-08T10:32:01;101968.13;;;22.62;59.42
74573;BME280;73017;50.810;4.428;2023-10-08T10:34:29;101948.81;;;22.52;59.40
74573;BME280;73017;50.810;4.428;2023-10-08T10:36:59;101975.66;;;22.72;59.51
74573;BME280;73017;50.810;4.428;2023-10-08T10:39:28;101961.25;;;22.60;59.51
74573;BME280;73017;50.810;4.428;2023-10-08T10:42:00;101958.81;;;22.55;59.49
74573;BME280;73017;50.810;4.428;2023-10-08T10:44:33;101970.66;;;22.70;59.47
74573;BME280;73017;50.810;4.428;2023-10-08T10:47:02;101991.88;;;22.79;59.42
74573;BME280;73017;50.810;4.428;2023-10-08T10:49:40;101958.69;;;22.64;59.38
74573;BME280;73017;50.810;4.428;2023-10-08T10:52:27;101956.13;;;22.68;59.47
74573;BME280;73017;50.810;4.428;2023-10-08T10:55:14;101962.13;;;22.77;59.34
74573;BME280;73017;50.810;4.428;2023-10-08T10:57:40;101981.41;;;22.86;59.41
74573;BME280;73017;50.810;4.428;2023-10-08T11:00:07;101971.88;;;22.85;59.61
74573;BME280;73017;50.810;4.428;2023-10-08T11:02:51;101953.22;;;22.73;59.46
74573;BME280;73017;50.810;4.428;2023-10-08T11:05:18;101972.97;;;22.84;59.19
74573;BME280;73017;50.810;4.428;2023-10-08T11:07:55;101957.22;;;22.79;59.27
74573;BME280;73017;50.810;4.428;2023-10-08T11:10:35;101955.00;;;22.81;59.15
74573;BME280;73017;50.810;4.428;2023-10-08T11:13:07;101956.09;;;22.80;59.79
74573;BME280;73017;50.810;4.428;2023-10-08T11:15:41;101985.59;;;22.99;59.38
74573;BME280;73017;50.810;4.428;2023-10-08T11:18:09;101981.19;;;22.91;59.53
74573;BME280;73017;50.810;4.428;2023-10-08T11:20:34;101976.56;;;22.76;59.77
74573;BME280;73017;50.810;4.428;2023-10-08T11:23:06;101972.91;;;22.68;60.13
74573;BME280;73017;50.810;4.428;2023-10-08T11:25:56;101975.59;;;22.56;60.37
74573;BME280;73017;50.810;4.428;2023-10-08T11:28:32;101970.81;;;22.49;60.44
74573;BME280;73017;50.810;4.428;2023-10-08T11:31:04;101938.53;;;22.26;60.35
74573;BME280;73017;50.810;4.428;2023-10-08T11:33:44;101964.81;;;22.40;61.12
74573;BME280;73017;50.810;4.428;2023-10-08T11:36:23;101954.09;;;22.36;60.79
74573;BME280;73017;50.810;4.428;2023-10-08T11:39:08;101925.75;;;22.19;60.92
74573;BME280;73017;50.810;4.428;2023-10-08T11:41:34;101946.19;;;22.28;61.24
74573;BME280;73017;50.810;4.428;2023-10-08T11:44:17;101913.78;;;22.13;61.05
74573;BME280;73017;50.810;4.428;2023-10-08T11:46:49;101927.84;;;22.14;61.01
74573;BME280;73017;50.810;4.428;2023-10-08T11:49:18;101914.34;;;22.07;61.17
74573;BME280;73017;50.810;4.428;2023-10-08T11:51:45;101938.09;;;22.24;61.54
74573;BME280;73017;50.810;4.428;2023-10-08T11:54:14;101908.25;;;22.06;61.66
74573;BME280;73017;50.810;4.428;2023-10-08T11:56:40;101925.00;;;22.19;61.28
74573;BME280;73017;50.810;4.428;2023-10-08T11:59:06;101904.34;;;22.04;61.47
74573;BME280;73017;50.810;4.428;2023-10-08T12:01:37;101896.72;;;22.02;61.79
74573;BME280;73017;50.810;4.428;2023-10-08T12:04:08;101920.00;;;22.17;60.94
74573;BME280;73017;50.810;4.428;2023-10-08T12:06:39;101895.16;;;22.01;61.14
74573;BME280;73017;50.810;4.428;2023-10-08T12:09:12;101906.56;;;22.14;61.50
74573;BME280;73017;50.810;4.428;2023-10-08T12:11:38;101899.03;;;22.04;61.67
74573;BME280;73017;50.810;4.428;2023-10-08T12:14:05;101910.66;;;22.11;61.44
74573;BME280;73017;50.810;4.428;2023-10-08T12:16:31;101882.59;;;22.01;61.65
74573;BME280;73017;50.810;4.428;2023-10-08T12:19:01;101911.88;;;22.14;61.71
74573;BME280;73017;50.810;4.428;2023-10-08T12:21:30;101877.84;;;21.95;61.45
74573;BME280;73017;50.810;4.428;2023-10-08T12:23:59;101897.16;;;22.04;61.75
74573;BME280;73017;50.810;4.428;2023-10-08T12:26:26;101884.06;;;21.99;61.69
74573;BME280;73017;50.810;4.428;2023-10-08T12:28:52;101881.06;;;22.00;61.67
74573;BME280;73017;50.810;4.428;2023-10-08T12:31:20;101879.16;;;22.01;61.52
74573;BME280;73017;50.810;4.428;2023-10-08T12:33:52;101902.03;;;22.14;61.59
74573;BME280;73017;50.810;4.428;2023-10-08T12:36:28;101907.44;;;22.18;61.88
74573;BME280;73017;50.810;4.428;2023-10-08T12:38:58;101873.19;;;22.04;61.50
74573;BME280;73017;50.810;4.428;2023-10-08T12:41:25;101880.50;;;22.07;61.17
74573;BME280;73017;50.810;4.428;2023-10-08T12:43:52;101894.13;;;22.18;61.72
74573;BME280;73017;50.810;4.428;2023-10-08T12:46:19;101889.16;;;22.16;61.62
74573;BME280;73017;50.810;4.428;2023-10-08T12:48:50;101891.81;;;22.16;61.73
74573;BME280;73017;50.810;4.428;2023-10-08T12:51:23;101893.69;;;22.16;61.64
74573;BME280;73017;50.810;4.428;2023-10-08T12:53:50;101876.28;;;22.06;61.60
74573;BME280;73017;50.810;4.428;2023-10-08T12:56:20;101884.28;;;22.18;61.70
74573;BME280;73017;50.810;4.428;2023-10-08T12:58:58;101896.56;;;22.23;61.68
74573;BME280;73017;50.810;4.428;2023-10-08T13:01:23;101899.56;;;22.21;61.39
74573;BME280;73017;50.810;4.428;2023-10-08T13:03:54;101890.69;;;22.17;61.76
74573;BME280;73017;50.810;4.428;2023-10-08T13:06:26;101880.63;;;22.11;61.25
74573;BME280;73017;50.810;4.428;2023-10-08T13:08:56;101896.91;;;22.21;61.44
74573;BME280;73017;50.810;4.428;2023-10-08T13:11:23;101896.56;;;22.23;61.48
74573;BME280;73017;50.810;4.428;2023-10-08T13:13:53;101879.38;;;22.20;61.17
74573;BME280;73017;50.810;4.428;2023-10-08T13:16:23;101889.69;;;22.22;61.31
74573;BME280;73017;50.810;4.428;2023-10-08T13:18:49;101879.38;;;22.20;61.72